createdAt,value
2022-12-14T00:00:29.599Z,-2.32
2022-12-14T00:02:58.397Z,-2.34
2022-12-14T00:05:28.913Z,-2.37
2022-12-14T00:07:58.573Z,-2.38
2022-12-14T00:10:27.441Z,-2.37
2022-12-14T00:12:55.701Z,-2.43
2022-12-14T00:15:24.002Z,-2.38
2022-12-14T00:17:53.126Z,-2.43
2022-12-14T00:20:21.945Z,-2.46
2022-12-14T00:22:50.218Z,-2.42
2022-12-14T00:25:19.910Z,-2.46
2022-12-14T00:27:48.295Z,-2.39
2022-12-14T00:30:18.577Z,-2.41
2022-12-14T00:32:47.236Z,-2.38
2022-12-14T00:35:18.435Z,-2.36
2022-12-14T00:37:48.896Z,-2.38
2022-12-14T00:40:17.349Z,-2.37
2022-12-14T00:42:46.984Z,-2.46
2022-12-14T00:45:15.231Z,-2.47
2022-12-14T00:47:43.435Z,-2.48
2022-12-14T00:50:11.680Z,-2.46
2022-12-14T00:52:40.304Z,-2.43
2022-12-14T00:55:09.345Z,-2.43
2022-12-14T00:57:37.678Z,-2.36
2022-12-14T01:00:09.759Z,-2.32
2022-12-14T01:02:38.029Z,-2.35
2022-12-14T01:05:07.932Z,-2.33
2022-12-14T01:07:36.202Z,-2.33
2022-12-14T01:10:05.101Z,-2.33
2022-12-14T01:12:33.299Z,-2.37
2022-12-14T01:15:01.511Z,-2.37
2022-12-14T01:17:31.236Z,-2.32
2022-12-14T01:19:59.501Z,-2.26
2022-12-14T01:22:27.966Z,-2.42
2022-12-14T01:24:56.223Z,-2.37
2022-12-14T01:27:24.410Z,-2.41
2022-12-14T01:29:52.700Z,-2.45
2022-12-14T01:32:20.927Z,-2.46
2022-12-14T01:34:51.201Z,-2.46
2022-12-14T01:37:19.584Z,-2.56
2022-12-14T01:39:48.159Z,-2.54
2022-12-14T01:42:17.287Z,-2.62
2022-12-14T01:44:55.641Z,-2.60
2022-12-14T01:47:40.679Z,-2.66
2022-12-14T01:50:21.157Z,-2.71
2022-12-14T01:52:53.837Z,-2.77
2022-12-14T01:55:25.280Z,-2.81
2022-12-14T01:57:58.220Z,-2.75
2022-12-14T02:00:26.610Z,-2.71
2022-12-14T02:03:00.320Z,-2.66
2022-12-14T02:05:32.110Z,-2.69
2022-12-14T02:08:00.637Z,-2.65
2022-12-14T02:10:30.804Z,-2.75
2022-12-14T02:13:05.756Z,-2.72
2022-12-14T02:15:35.813Z,-2.67
2022-12-14T02:18:06.176Z,-2.72
2022-12-14T02:20:45.692Z,-2.51
2022-12-14T02:23:55.249Z,-2.42
2022-12-14T02:26:53.135Z,-2.33
2022-12-14T02:30:00.152Z,-2.33
2022-12-14T02:32:44.010Z,-2.21
2022-12-14T02:35:18.566Z,-2.20
2022-12-14T02:37:57.944Z,-2.20
2022-12-14T02:40:34.454Z,-2.16
2022-12-14T02:43:12.935Z,-2.18
2022-12-14T02:45:44.529Z,-2.20
2022-12-14T02:48:19.610Z,-2.19
2022-12-14T02:50:56.113Z,-2.22
2022-12-14T02:53:30.938Z,-2.20
2022-12-14T02:56:05.256Z,-2.16
2022-12-14T02:58:37.843Z,-2.20
2022-12-14T03:01:10.444Z,-2.20
2022-12-14T03:03:40.413Z,-2.23
2022-12-14T03:06:15.614Z,-2.27
2022-12-14T03:08:47.468Z,-2.22
2022-12-14T03:11:21.429Z,-2.22
2022-12-14T03:13:54.306Z,-2.13
2022-12-14T03:16:26.436Z,-2.17
2022-12-14T03:19:00.288Z,-2.23
2022-12-14T03:21:33.191Z,-2.22
2022-12-14T03:24:06.881Z,-2.20
2022-12-14T03:26:42.840Z,-2.27
2022-12-14T03:29:19.447Z,-2.26
2022-12-14T03:31:50.042Z,-2.26
2022-12-14T03:34:25.006Z,-2.35
2022-12-14T03:36:57.972Z,-2.30
2022-12-14T03:39:31.889Z,-2.28
2022-12-14T03:42:07.572Z,-2.26
2022-12-14T03:44:48.848Z,-2.26
2022-12-14T03:47:31.723Z,-2.28
2022-12-14T03:50:06.046Z,-2.30
2022-12-14T03:52:38.489Z,-2.27
2022-12-14T03:55:23.477Z,-2.27
2022-12-14T03:58:08.621Z,-2.26
2022-12-14T04:00:42.310Z,-2.26
2022-12-14T04:03:15.188Z,-2.31
2022-12-14T04:05:50.133Z,-2.34
2022-12-14T04:08:27.842Z,-2.28
2022-12-14T04:11:16.272Z,-2.30
2022-12-14T04:14:07.801Z,-2.34
2022-12-14T04:16:58.752Z,-2.36
2022-12-14T04:19:32.797Z,-2.32
2022-12-14T04:22:06.187Z,-2.37
2022-12-14T04:24:57.632Z,-2.35
2022-12-14T04:27:34.016Z,-2.35
2022-12-14T04:30:02.904Z,-2.38
2022-12-14T04:32:35.736Z,-2.43
2022-12-14T04:35:10.406Z,-2.35
2022-12-14T04:37:43.872Z,-2.33
2022-12-14T04:40:15.892Z,-2.33
2022-12-14T04:42:49.647Z,-2.33
2022-12-14T04:45:21.678Z,-2.33
2022-12-14T04:47:56.962Z,-2.35
2022-12-14T04:50:30.261Z,-2.24
2022-12-14T04:53:07.668Z,-2.24
2022-12-14T04:55:37.959Z,-2.29
2022-12-14T04:58:13.314Z,-2.20
2022-12-14T05:00:58.211Z,-2.24
2022-12-14T05:03:31.762Z,-2.21
2022-12-14T05:06:09.225Z,-2.19
2022-12-14T05:09:00.217Z,-2.24
2022-12-14T05:14:25.745Z,-2.28
2022-12-14T05:16:54.102Z,-2.26
2022-12-14T05:19:26.385Z,-2.26
2022-12-14T05:21:56.123Z,-2.28
2022-12-14T05:24:26.495Z,-2.23
2022-12-14T05:26:54.756Z,-2.27
2022-12-14T05:29:22.934Z,-2.36
2022-12-14T05:31:52.237Z,-2.36
2022-12-14T05:34:20.577Z,-2.36
2022-12-14T05:36:49.031Z,-2.33
2022-12-14T05:39:17.667Z,-2.33
2022-12-14T05:41:47.307Z,-2.34
2022-12-14T05:44:15.550Z,-2.28
2022-12-14T05:46:43.794Z,-2.24
2022-12-14T05:49:12.224Z,-2.26
2022-12-14T05:51:40.406Z,-2.22
2022-12-14T05:54:08.827Z,-2.21
2022-12-14T05:56:37.189Z,-2.22
2022-12-14T05:59:07.160Z,-2.18
2022-12-14T06:01:35.518Z,-2.14
2022-12-14T06:04:03.773Z,-2.14
2022-12-14T06:06:34.769Z,-2.27
2022-12-14T06:09:03.102Z,-2.30
2022-12-14T06:11:31.521Z,-2.28
2022-12-14T06:13:59.753Z,-2.32
2022-12-14T06:16:29.387Z,-2.39
2022-12-14T06:18:59.195Z,-2.37
2022-12-14T06:21:29.549Z,-2.34
2022-12-14T06:23:58.659Z,-2.36
2022-12-14T06:26:27.994Z,-2.41
2022-12-14T06:28:56.816Z,-2.36
2022-12-14T06:31:26.646Z,-2.36
2022-12-14T06:33:58.170Z,-2.46
2022-12-14T06:36:28.764Z,-2.46
2022-12-14T06:38:58.818Z,-2.49
2022-12-14T06:41:27.230Z,-2.58
2022-12-14T06:43:55.550Z,-2.60
2022-12-14T06:46:25.158Z,-2.67
2022-12-14T06:48:55.447Z,-2.69
2022-12-14T06:51:26.058Z,-2.65
2022-12-14T06:53:56.064Z,-2.61
2022-12-14T06:56:25.939Z,-2.57
2022-12-14T06:58:55.312Z,-2.56
2022-12-14T07:01:25.921Z,-2.52
2022-12-14T07:03:56.035Z,-2.51
2022-12-14T07:06:27.277Z,-2.52
2022-12-14T07:08:57.268Z,-2.52
2022-12-14T07:11:26.741Z,-2.56
2022-12-14T07:13:55.399Z,-2.54
2022-12-14T07:16:27.471Z,-2.64
2022-12-14T07:18:56.539Z,-2.61
2022-12-14T07:21:26.662Z,-2.66
2022-12-14T07:23:55.143Z,-2.68
2022-12-14T07:26:25.878Z,-2.68
2022-12-14T07:28:54.884Z,-2.69
2022-12-14T07:31:24.447Z,-2.73
2022-12-14T07:33:54.540Z,-2.77
2022-12-14T07:36:24.300Z,-2.82
2022-12-14T07:38:55.606Z,-2.86
2022-12-14T07:41:25.297Z,-2.94
2022-12-14T07:43:56.444Z,-3.01
2022-12-14T07:46:26.417Z,-3.07
2022-12-14T07:48:56.677Z,-3.06
2022-12-14T07:51:26.760Z,-3.09
2022-12-14T07:53:56.697Z,-3.13
2022-12-14T07:56:26.318Z,-3.17
2022-12-14T07:58:56.523Z,-3.20
2022-12-14T08:01:26.700Z,-3.23
2022-12-14T08:03:56.697Z,-3.25
2022-12-14T08:06:27.064Z,-3.21
2022-12-14T08:08:57.176Z,-3.28
2022-12-14T08:11:26.480Z,-3.26
2022-12-14T08:13:55.061Z,-3.30
2022-12-14T08:16:23.725Z,-3.26
2022-12-14T08:18:54.145Z,-3.25
2022-12-14T08:21:23.689Z,-3.27
2022-12-14T08:23:52.943Z,-3.25
2022-12-14T08:26:23.736Z,-3.28
2022-12-14T08:28:52.091Z,-3.27
2022-12-14T08:31:22.715Z,-3.24
2022-12-14T08:33:52.095Z,-3.20
2022-12-14T08:36:22.537Z,-3.16
2022-12-14T08:38:53.562Z,-3.16
2022-12-14T08:41:23.646Z,-3.09
2022-12-14T08:43:56.955Z,-3.07
2022-12-14T08:46:27.195Z,-3.04
2022-12-14T08:48:56.330Z,-3.09
2022-12-14T08:51:26.451Z,-3.08
2022-12-14T08:53:56.174Z,-3.07
2022-12-14T08:56:28.292Z,-3.12
2022-12-14T08:58:57.063Z,-3.01
2022-12-14T09:01:32.831Z,-2.97
2022-12-14T09:04:05.000Z,-2.88
2022-12-14T09:06:35.455Z,-2.81
2022-12-14T09:09:04.035Z,-2.76
2022-12-14T09:11:34.105Z,-2.74
2022-12-14T09:14:02.335Z,-2.68
2022-12-14T09:16:30.719Z,-2.66
2022-12-14T09:18:58.963Z,-2.68
2022-12-14T09:21:27.227Z,-2.65
2022-12-14T09:23:59.560Z,-2.66
2022-12-14T09:26:29.774Z,-2.72
2022-12-14T09:28:59.636Z,-2.64
2022-12-14T09:31:29.042Z,-2.56
2022-12-14T09:33:57.743Z,-2.51
2022-12-14T09:36:28.261Z,-2.50
2022-12-14T09:38:57.811Z,-2.42
2022-12-14T09:41:42.000Z,-2.37
2022-12-14T09:44:25.827Z,-2.23
2022-12-14T09:47:01.010Z,-2.19
2022-12-14T09:49:31.119Z,-2.15
2022-12-14T09:52:02.420Z,-2.10
2022-12-14T09:54:34.196Z,-2.07
2022-12-14T09:57:09.921Z,-1.93
2022-12-14T09:59:40.114Z,-1.94
2022-12-14T10:02:31.950Z,-1.87
2022-12-14T10:05:17.167Z,-1.85
2022-12-14T10:07:52.865Z,-1.80
2022-12-14T10:10:26.730Z,-1.84
2022-12-14T10:13:03.847Z,-1.82
2022-12-14T10:15:41.407Z,-1.70
2022-12-14T10:18:58.752Z,-1.57
2022-12-14T10:21:34.686Z,-1.52
2022-12-14T10:24:06.364Z,-1.48
2022-12-14T10:26:39.410Z,-1.42
2022-12-14T10:29:16.419Z,-1.40
2022-12-14T10:31:53.815Z,-1.35
2022-12-14T10:34:25.546Z,-1.35
2022-12-14T10:36:55.760Z,-1.32
2022-12-14T10:39:32.135Z,-1.30
2022-12-14T10:42:06.344Z,-1.27
2022-12-14T10:44:44.334Z,-1.17
2022-12-14T10:47:26.818Z,-1.13
2022-12-14T10:50:00.612Z,-1.02
2022-12-14T10:52:37.087Z,-0.95
2022-12-14T10:55:14.311Z,-0.87
2022-12-14T10:57:42.669Z,-0.89
2022-12-14T11:00:22.568Z,-0.94
2022-12-14T11:02:56.994Z,-0.93
2022-12-14T11:05:37.968Z,-0.82
2022-12-14T11:08:08.676Z,-0.66
2022-12-14T11:10:39.565Z,-0.75
2022-12-14T11:13:15.738Z,-0.74
2022-12-14T11:15:46.555Z,-0.72
2022-12-14T11:18:28.878Z,-0.76
2022-12-14T11:20:59.451Z,-0.70
2022-12-14T11:23:28.876Z,-0.64
2022-12-14T11:26:00.105Z,-0.64
2022-12-14T11:28:36.994Z,-0.59
2022-12-14T11:31:09.997Z,-0.54
2022-12-14T11:33:45.994Z,-0.52
2022-12-14T11:36:25.962Z,-0.51
2022-12-14T11:38:58.974Z,-0.53
2022-12-14T11:41:32.699Z,-0.52
2022-12-14T11:44:04.022Z,-0.59
2022-12-14T11:46:44.935Z,-0.47
2022-12-14T11:49:27.804Z,-0.46
2022-12-14T11:51:59.525Z,-0.46
2022-12-14T11:54:28.232Z,-0.43
2022-12-14T11:57:04.090Z,-0.37
2022-12-14T11:59:42.344Z,-0.35
2022-12-14T12:02:20.568Z,-0.25
2022-12-14T12:04:54.621Z,-0.22
2022-12-14T12:07:29.739Z,-0.26
2022-12-14T12:10:03.341Z,-0.25
2022-12-14T12:12:32.772Z,-0.21
2022-12-14T12:15:01.820Z,-0.10
2022-12-14T12:17:42.386Z,-0.07
2022-12-14T12:20:24.676Z,-0.08
2022-12-14T12:22:57.613Z,-0.07
2022-12-14T12:25:33.611Z,-0.01
2022-12-14T12:28:12.289Z,0.02
2022-12-14T12:30:44.342Z,-0.01
2022-12-14T12:33:25.593Z,0.02
2022-12-14T12:35:57.295Z,0.06
2022-12-14T12:38:51.988Z,0.05
2022-12-14T12:41:29.311Z,0.02
2022-12-14T12:44:06.086Z,0.07
2022-12-14T12:46:53.582Z,0.09
2022-12-14T12:49:27.861Z,0.14
2022-12-14T12:52:00.934Z,0.15
2022-12-14T12:54:34.326Z,0.08
2022-12-14T12:57:05.166Z,0.15
2022-12-14T12:59:38.570Z,0.21
2022-12-14T13:02:20.152Z,0.17
2022-12-14T13:04:52.847Z,0.10
2022-12-14T13:07:31.635Z,0.07
2022-12-14T13:10:05.923Z,0.03
2022-12-14T13:12:38.352Z,0.06
2022-12-14T13:15:19.262Z,0.05
2022-12-14T13:17:51.697Z,-0.05
2022-12-14T13:20:23.783Z,-0.05
2022-12-14T13:22:55.009Z,-0.01
2022-12-14T13:25:28.195Z,-0.08
2022-12-14T13:28:14.915Z,-0.15
2022-12-14T13:31:02.734Z,-0.16
2022-12-14T13:33:53.326Z,-0.15
2022-12-14T13:36:43.183Z,-0.17
2022-12-14T13:39:46.522Z,-0.24
2022-12-14T13:42:28.609Z,-0.25
2022-12-14T13:44:59.701Z,-0.19
2022-12-14T13:47:32.212Z,-0.23
2022-12-14T13:52:57.994Z,-0.25
2022-12-14T13:55:33.804Z,-0.25
2022-12-14T13:58:20.454Z,-0.25
2022-12-14T14:01:00.946Z,-0.24
2022-12-14T14:03:52.858Z,-0.17
2022-12-14T14:06:34.734Z,-0.17
2022-12-14T14:09:56.894Z,-0.17
2022-12-14T14:12:37.932Z,-0.23
2022-12-14T14:15:26.289Z,-0.23
2022-12-14T14:17:56.352Z,-0.26
2022-12-14T14:20:39.649Z,-0.25
2022-12-14T14:23:33.940Z,-0.19
2022-12-14T14:26:22.607Z,-0.22
2022-12-14T14:29:21.789Z,-0.25
2022-12-14T14:31:52.971Z,-0.25
2022-12-14T14:34:40.075Z,-0.27
2022-12-14T14:37:17.007Z,-0.32
2022-12-14T14:39:56.879Z,-0.45
2022-12-14T14:42:29.958Z,-0.50
2022-12-14T14:45:02.493Z,-0.52
2022-12-14T14:47:34.740Z,-0.57
2022-12-14T14:50:07.191Z,-0.65
2022-12-14T14:53:08.968Z,-0.66
2022-12-14T14:56:02.716Z,-0.75
2022-12-14T14:58:35.212Z,-0.81
2022-12-14T15:01:13.955Z,-0.84
2022-12-14T15:03:52.375Z,-0.94
2022-12-14T15:06:24.402Z,-1.02
2022-12-14T15:08:58.434Z,-1.06
2022-12-14T15:11:29.432Z,-1.13
2022-12-14T15:14:02.075Z,-1.17
2022-12-14T15:16:34.160Z,-1.25
2022-12-14T15:19:24.804Z,-1.33
2022-12-14T15:21:55.575Z,-1.39
2022-12-14T15:24:25.322Z,-1.47
2022-12-14T15:26:54.156Z,-1.54
2022-12-14T15:29:28.846Z,-1.69
2022-12-14T15:32:01.945Z,-1.77
2022-12-14T15:34:30.695Z,-1.94
2022-12-14T15:36:59.051Z,-2.03
2022-12-14T15:39:38.326Z,-2.14
2022-12-14T15:42:13.003Z,-2.16
2022-12-14T15:44:50.223Z,-2.20
2022-12-14T15:47:28.465Z,-2.26
2022-12-14T15:50:14.494Z,-2.33
2022-12-14T15:52:44.774Z,-2.45
2022-12-14T15:55:29.220Z,-2.52
2022-12-14T15:57:59.012Z,-2.64
2022-12-14T16:00:27.428Z,-2.68
2022-12-14T16:02:57.360Z,-2.74
2022-12-14T16:05:25.931Z,-2.79
2022-12-14T16:07:57.262Z,-2.79
2022-12-14T16:10:29.588Z,-2.84
2022-12-14T16:13:01.022Z,-2.80
2022-12-14T16:15:30.518Z,-2.80
2022-12-14T16:18:03.398Z,-2.76
2022-12-14T16:20:35.041Z,-2.80
2022-12-14T16:23:07.824Z,-2.86
2022-12-14T16:25:37.818Z,-2.97
2022-12-14T16:28:27.667Z,-3.06
2022-12-14T16:31:00.481Z,-3.12
2022-12-14T16:33:32.238Z,-3.18
2022-12-14T16:36:08.481Z,-3.23
2022-12-14T16:38:41.986Z,-3.26
2022-12-14T16:41:10.964Z,-3.26
2022-12-14T16:43:41.721Z,-3.21
2022-12-14T16:46:13.544Z,-3.26
2022-12-14T16:48:46.472Z,-3.28
2022-12-14T16:51:58.735Z,-3.36
2022-12-14T16:54:24.963Z,-3.43
2022-12-14T16:56:58.276Z,-3.49
2022-12-14T16:59:30.392Z,-3.49
2022-12-14T17:01:59.241Z,-3.51
2022-12-14T17:04:36.278Z,-3.56
2022-12-14T17:07:05.383Z,-3.62
2022-12-14T17:09:35.485Z,-3.62
2022-12-14T17:12:12.528Z,-3.58
2022-12-14T17:14:46.033Z,-3.63
2022-12-14T17:17:20.980Z,-3.69
2022-12-14T17:19:50.737Z,-3.70
2022-12-14T17:22:24.050Z,-3.68
2022-12-14T17:24:52.729Z,-3.70
2022-12-14T17:27:22.350Z,-3.71
2022-12-14T17:29:50.916Z,-3.76
2022-12-14T17:32:19.746Z,-3.82
2022-12-14T17:34:48.292Z,-3.85
2022-12-14T17:37:20.753Z,-3.87
2022-12-14T17:39:49.633Z,-3.87
2022-12-14T17:42:21.454Z,-3.90
2022-12-14T17:44:53.596Z,-3.94
2022-12-14T17:47:22.668Z,-3.98
2022-12-14T17:49:50.930Z,-4.00
2022-12-14T17:52:25.044Z,-4.00
2022-12-14T17:54:53.468Z,-4.02
2022-12-14T17:57:24.062Z,-3.97
2022-12-14T18:00:13.209Z,-4.05
2022-12-14T18:02:42.785Z,-4.07
2022-12-14T18:05:18.609Z,-4.06
2022-12-14T18:07:49.569Z,-4.11
2022-12-14T18:10:19.615Z,-4.14
2022-12-14T18:12:48.448Z,-4.16
2022-12-14T18:15:19.439Z,-4.22
2022-12-14T18:17:49.231Z,-4.21
2022-12-14T18:20:19.260Z,-4.23
2022-12-14T18:22:50.013Z,-4.23
2022-12-14T18:25:27.844Z,-4.24
2022-12-14T18:27:57.325Z,-4.22
2022-12-14T18:30:26.424Z,-4.22
2022-12-14T18:32:55.893Z,-4.24
2022-12-14T18:35:26.236Z,-4.25
2022-12-14T18:37:55.937Z,-4.26
2022-12-14T18:40:26.505Z,-4.27
2022-12-14T18:42:55.710Z,-4.25
2022-12-14T18:45:26.239Z,-4.22
2022-12-14T18:47:55.219Z,-4.25
2022-12-14T18:50:24.779Z,-4.28
2022-12-14T18:52:53.350Z,-4.29
2022-12-14T18:55:25.870Z,-4.25
2022-12-14T18:57:56.531Z,-4.25
2022-12-14T19:00:27.030Z,-4.27
2022-12-14T19:02:58.977Z,-4.24
2022-12-14T19:05:27.838Z,-4.24
2022-12-14T19:07:58.782Z,-4.26
2022-12-14T19:10:31.267Z,-4.23
2022-12-14T19:13:00.445Z,-4.30
2022-12-14T19:15:31.147Z,-4.25
2022-12-14T19:17:59.780Z,-4.25
2022-12-14T19:20:29.303Z,-4.28
2022-12-14T19:22:57.821Z,-4.30
2022-12-14T19:25:26.536Z,-4.31
2022-12-14T19:28:30.941Z,-4.19
2022-12-14T19:30:45.194Z,-4.22
2022-12-14T19:33:13.597Z,-4.24
2022-12-14T19:35:42.636Z,-4.25
2022-12-14T19:38:14.095Z,-4.19
2022-12-14T19:40:42.962Z,-4.13
2022-12-14T19:43:12.807Z,-4.13
2022-12-14T19:45:41.399Z,-4.15
2022-12-14T19:48:13.112Z,-4.20
2022-12-14T19:50:41.995Z,-4.26
2022-12-14T19:53:10.312Z,-4.19
2022-12-14T19:55:38.721Z,-4.31
2022-12-14T19:58:08.219Z,-4.32
2022-12-14T20:00:37.926Z,-4.37
2022-12-14T20:03:07.476Z,-4.38
2022-12-14T20:05:36.010Z,-4.39
2022-12-14T20:08:04.563Z,-4.39
2022-12-14T20:10:33.985Z,-4.42
2022-12-14T20:13:02.523Z,-4.43
2022-12-14T20:15:30.877Z,-4.44
2022-12-14T20:18:01.154Z,-4.41
2022-12-14T20:20:29.489Z,-4.38
2022-12-14T20:22:57.844Z,-4.37
2022-12-14T20:25:26.438Z,-4.42
2022-12-14T20:27:54.754Z,-4.42
2022-12-14T20:30:23.078Z,-4.42
2022-12-14T20:32:51.361Z,-4.40
2022-12-14T20:35:21.032Z,-4.42
2022-12-14T20:37:49.365Z,-4.44
2022-12-14T20:40:17.735Z,-4.45
2022-12-14T20:42:46.026Z,-4.50
2022-12-14T20:45:14.498Z,-4.48
2022-12-14T20:47:42.766Z,-4.50
2022-12-14T20:50:11.059Z,-4.52
2022-12-14T20:52:40.811Z,-4.50
2022-12-14T20:55:10.416Z,-4.54
2022-12-14T20:57:39.050Z,-4.49
2022-12-14T21:00:10.133Z,-4.51
2022-12-14T21:02:39.262Z,-4.54
2022-12-14T21:05:10.131Z,-4.55
2022-12-14T21:07:40.698Z,-4.53
2022-12-14T21:10:10.616Z,-4.52
2022-12-14T21:12:39.787Z,-4.51
2022-12-14T21:15:09.647Z,-4.48
2022-12-14T21:17:39.173Z,-4.40
2022-12-14T21:20:09.379Z,-4.38
2022-12-14T21:22:38.164Z,-4.45
2022-12-14T21:25:09.433Z,-4.40
2022-12-14T21:27:41.481Z,-4.34
2022-12-14T21:30:12.979Z,-4.36
2022-12-14T21:32:41.488Z,-4.59
2022-12-14T21:35:10.696Z,-4.76
2022-12-14T21:37:39.803Z,-4.82
2022-12-14T21:40:31.130Z,-4.84
2022-12-14T21:42:58.716Z,-4.91
2022-12-14T21:45:27.152Z,-5.10
2022-12-14T21:47:55.537Z,-5.20
2022-12-14T21:50:23.926Z,-5.19
2022-12-14T21:52:52.262Z,-5.19
2022-12-14T21:55:21.905Z,-5.16
2022-12-14T21:58:07.326Z,-5.19
2022-12-14T22:00:35.908Z,-5.12
2022-12-14T22:03:04.245Z,-5.08
2022-12-14T22:05:33.400Z,-5.01
2022-12-14T22:08:01.880Z,-4.91
2022-12-14T22:10:31.551Z,-4.87
2022-12-14T22:12:59.829Z,-4.84
2022-12-14T22:15:28.052Z,-4.79
2022-12-14T22:17:56.398Z,-4.72
2022-12-14T22:20:24.865Z,-4.72
2022-12-14T22:22:53.100Z,-4.73
2022-12-14T22:25:22.042Z,-4.73
2022-12-14T22:27:51.703Z,-4.68
2022-12-14T22:30:20.834Z,-4.67
2022-12-14T22:32:49.137Z,-4.72
2022-12-14T22:35:18.119Z,-4.70
2022-12-14T22:37:46.457Z,-4.72
2022-12-14T22:40:14.833Z,-4.87
2022-12-14T22:42:43.106Z,-5.01
2022-12-14T22:45:12.824Z,-5.25
2022-12-14T22:47:41.074Z,-5.54
2022-12-14T22:50:10.250Z,-5.49
2022-12-14T22:52:38.675Z,-5.42
2022-12-14T22:55:07.762Z,-5.32
2022-12-14T22:57:41.719Z,-5.32
2022-12-14T23:00:16.488Z,-5.29
2022-12-14T23:02:48.319Z,-5.10
2022-12-14T23:05:17.318Z,-5.04
2022-12-14T23:07:45.845Z,-4.94
2022-12-14T23:10:31.594Z,-4.89
2022-12-14T23:13:17.149Z,-4.80
2022-12-14T23:16:04.388Z,-4.76
2022-12-14T23:18:50.669Z,-4.70
2022-12-14T23:21:36.762Z,-4.70
2022-12-14T23:24:24.031Z,-4.69
2022-12-14T23:27:10.162Z,-4.73
2022-12-14T23:29:55.733Z,-4.75
2022-12-14T23:32:43.083Z,-4.75
2022-12-14T23:35:28.980Z,-4.96
2022-12-14T23:38:14.812Z,-5.55
2022-12-14T23:41:00.455Z,-5.68
2022-12-14T23:43:45.852Z,-5.56
2022-12-14T23:46:31.533Z,-5.65
2022-12-14T23:49:18.506Z,-5.57
2022-12-14T23:52:04.157Z,-5.49
2022-12-14T23:54:49.915Z,-5.42
2022-12-14T23:57:35.685Z,-5.41
